Time;durP1;ratioP1;P1;durP2;ratioP2;P2;SDS_P1;SDS_P2;PMS_P1;PMS_P2;Temp;Humidity;BMP_temperature;BMP_pressure;BME280_temperature;BME280_humidity;BME280_pressure;Samples;Min_cycle;Max_cycle;Signal;HPM_P1;HPM_P2
2021/06/14 00:02:25;;;;;;;7.23;5.30;;;;;;;;;;6170160;23;20388;-83
2021/06/14 00:04:51;;;;;;;6.50;5.90;;;;;;;;;;6171672;23;20418;-83
2021/06/14 00:07:21;;;;;;;8.03;5.97;;;;;;;;;;6170803;23;20377;-84
2021/06/14 00:09:52;;;;;;;7.40;5.90;;;;;;;;;;6170588;23;20394;-83
2021/06/14 00:12:21;;;;;;;6.50;5.30;;;;;;;;;;6170732;23;20712;-84
2021/06/14 00:14:49;;;;;;;6.57;5.47;;;;;;;;;;6195688;23;20375;-83
2021/06/14 00:17:18;;;;;;;9.30;4.83;;;;;;;;;;6195192;23;20402;-84
2021/06/14 00:19:46;;;;;;;8.23;5.67;;;;;;;;;;6171770;23;20386;-85
2021/06/14 00:22:16;;;;;;;8.00;5.50;;;;;;;;;;6195782;23;20444;-84
2021/06/14 00:24:45;;;;;;;9.60;5.60;;;;;;;;;;6173723;23;20502;-84
2021/06/14 00:27:12;;;;;;;8.90;5.93;;;;;;;;;;6197652;23;20835;-84
2021/06/14 00:29:38;;;;;;;10.23;6.03;;;;;;;;;;6196068;23;20389;-84
2021/06/14 00:32:05;;;;;;;7.33;6.60;;;;;;;;;;6171830;23;20419;-84
2021/06/14 00:34:34;;;;;;;5.50;4.97;;;;;;;;;;6197732;23;20366;-84
2021/06/14 00:37:00;;;;;;;12.17;6.07;;;;;;;;;;6197368;23;20752;-84
2021/06/14 00:39:26;;;;;;;11.80;9.00;;;;;;;;;;6172498;23;20415;-84
2021/06/14 00:41:55;;;;;;;5.73;4.77;;;;;;;;;;6174046;23;20844;-84
2021/06/14 00:44:22;;;;;;;11.70;6.87;;;;;;;;;;6175788;23;20381;-82
2021/06/14 00:46:49;;;;;;;12.40;6.40;;;;;;;;;;6209883;23;20369;-81
2021/06/14 00:49:20;;;;;;;9.20;6.70;;;;;;;;;;6186271;22;20391;-81
2021/06/14 00:51:47;;;;;;;6.73;6.07;;;;;;;;;;6217835;22;20477;-83
2021/06/14 00:54:13;;;;;;;9.57;6.57;;;;;;;;;;6192578;22;20386;-83
2021/06/14 00:56:46;;;;;;;10.90;7.10;;;;;;;;;;6192997;22;20381;-84
2021/06/14 00:59:14;;;;;;;9.27;5.77;;;;;;;;;;6177604;23;20417;-84
2021/06/14 01:01:42;;;;;;;8.40;6.27;;;;;;;;;;6171832;23;20384;-83
2021/06/14 01:04:08;;;;;;;9.50;7.20;;;;;;;;;;6170527;23;20444;-84
2021/06/14 01:06:38;;;;;;;7.60;6.00;;;;;;;;;;6170745;23;20383;-83
2021/06/14 01:09:07;;;;;;;9.33;6.40;;;;;;;;;;6169631;23;20414;-84
2021/06/14 01:11:33;;;;;;;11.57;6.33;;;;;;;;;;6180521;23;20820;-84
2021/06/14 01:14:07;;;;;;;10.00;5.80;;;;;;;;;;6206899;23;20380;-82
2021/06/14 01:16:40;;;;;;;12.23;7.90;;;;;;;;;;6206056;23;20378;-84
2021/06/14 01:19:18;;;;;;;9.27;5.50;;;;;;;;;;6180983;23;20484;-83
2021/06/14 01:21:45;;;;;;;11.10;8.43;;;;;;;;;;6176814;23;20382;-81
2021/06/14 01:24:13;;;;;;;9.63;5.47;;;;;;;;;;6181753;23;20385;-82
2021/06/14 01:26:58;;;;;;;7.23;6.53;;;;;;;;;;6176877;23;20512;-82
2021/06/14 01:29:29;;;;;;;6.13;5.53;;;;;;;;;;6171906;23;20393;-84
2021/06/14 01:31:56;;;;;;;8.40;5.90;;;;;;;;;;6200732;23;20425;-83
2021/06/14 01:34:28;;;;;;;7.80;6.70;;;;;;;;;;6180455;23;20377;-84
2021/06/14 01:37:00;;;;;;;7.00;6.30;;;;;;;;;;6221450;23;20373;-84
2021/06/14 01:39:28;;;;;;;11.20;7.23;;;;;;;;;;6170564;23;20791;-84
2021/06/14 01:41:55;;;;;;;10.37;7.67;;;;;;;;;;6195228;23;20386;-84
2021/06/14 01:44:24;;;;;;;9.13;7.00;;;;;;;;;;6195650;23;20409;-84
2021/06/14 01:46:52;;;;;;;6.63;6.00;;;;;;;;;;6175362;23;20924;-84
2021/06/14 01:49:20;;;;;;;11.73;6.87;;;;;;;;;;6201200;23;20437;-84
2021/06/14 01:51:55;;;;;;;7.13;6.30;;;;;;;;;;6201549;23;20424;-84
2021/06/14 01:54:31;;;;;;;7.13;6.50;;;;;;;;;;6198177;23;20405;-83
2021/06/14 01:57:13;;;;;;;8.10;7.30;;;;;;;;;;6196628;23;20683;-83
2021/06/14 02:00:03;;;;;;;9.30;6.47;;;;;;;;;;6201131;23;20381;-83
2021/06/14 02:02:54;;;;;;;8.33;5.60;;;;;;;;;;6200150;23;20374;-82
2021/06/14 02:05:43;;;;;;;9.23;7.00;;;;;;;;;;6196395;23;20443;-85
2021/06/14 02:08:14;;;;;;;7.57;6.80;;;;;;;;;;6170511;23;20417;-83
2021/06/14 02:10:51;;;;;;;7.60;5.83;;;;;;;;;;6195162;23;20425;-82
2021/06/14 02:13:27;;;;;;;7.53;5.43;;;;;;;;;;6172086;23;20370;-84
2021/06/14 02:15:53;;;;;;;11.20;6.80;;;;;;;;;;6170682;23;20385;-83
2021/06/14 02:18:26;;;;;;;13.37;7.07;;;;;;;;;;6196536;23;20895;-83
2021/06/14 02:21:04;;;;;;;10.73;6.20;;;;;;;;;;6197809;23;20461;-84
2021/06/14 02:23:30;;;;;;;8.00;6.37;;;;;;;;;;6197927;23;20383;-83
2021/06/14 02:25:59;;;;;;;8.93;6.60;;;;;;;;;;6219833;23;20377;-82
2021/06/14 02:28:26;;;;;;;12.43;6.87;;;;;;;;;;6193698;23;20401;-82
2021/06/14 02:31:00;;;;;;;11.73;7.90;;;;;;;;;;6168742;23;20422;-82
2021/06/14 02:33:27;;;;;;;7.77;6.53;;;;;;;;;;6174106;23;20389;-82
2021/06/14 02:36:06;;;;;;;8.60;7.20;;;;;;;;;;6218200;23;20369;-83
2021/06/14 03:00:56;;;;;;;7.53;6.47;;;;;;;;;;6093575;23;20383;-84
2021/06/14 03:04:07;;;;;;;;;;;;;;;;;;;;;
2021/06/14 03:18:17;;;;;;;9.43;7.97;;;;;;;;;;6027838;23;20442;-85
2021/06/14 05:28:07;;;;;;;5.30;4.90;;;;;;;;;;6226980;22;20511;-87
2021/06/14 05:30:34;;;;;;;6.90;5.00;;;;;;;;;;6228574;23;20354;-86
2021/06/14 05:33:03;;;;;;;8.80;6.33;;;;;;;;;;6227185;23;20377;-84
2021/06/14 05:35:29;;;;;;;6.63;5.60;;;;;;;;;;6200983;23;20378;-84
2021/06/14 05:37:56;;;;;;;6.13;5.53;;;;;;;;;;6223526;23;20455;-85
2021/06/14 05:40:22;;;;;;;9.60;6.33;;;;;;;;;;6243150;22;20442;-84
2021/06/14 05:42:48;;;;;;;6.33;5.43;;;;;;;;;;6204491;23;20377;-84
2021/06/14 05:45:17;;;;;;;6.97;5.40;;;;;;;;;;6229859;23;20384;-85
2021/06/14 05:47:44;;;;;;;6.80;5.37;;;;;;;;;;6257835;23;20388;-84
2021/06/14 05:50:12;;;;;;;4.97;4.33;;;;;;;;;;6231741;23;20499;-85
2021/06/14 05:52:38;;;;;;;5.53;4.07;;;;;;;;;;6208851;23;20391;-84
2021/06/14 05:55:05;;;;;;;4.50;4.10;;;;;;;;;;6211638;23;20384;-84
2021/06/14 05:57:31;;;;;;;4.47;4.07;;;;;;;;;;6215569;23;20396;-84
2021/06/14 05:59:59;;;;;;;4.50;4.10;;;;;;;;;;6212935;22;20419;-85
2021/06/14 06:02:26;;;;;;;13.77;4.97;;;;;;;;;;6241472;23;20427;-84
2021/06/14 06:04:52;;;;;;;7.30;5.33;;;;;;;;;;6272910;22;20369;-85
2021/06/14 06:07:18;;;;;;;10.93;5.93;;;;;;;;;;6246019;22;20396;-85
2021/06/14 06:09:44;;;;;;;5.13;4.50;;;;;;;;;;6246164;22;20384;-87
2021/06/14 06:12:10;;;;;;;6.43;5.30;;;;;;;;;;6234682;23;20375;-85
2021/06/14 06:14:36;;;;;;;8.67;5.00;;;;;;;;;;6256731;23;20391;-85
2021/06/14 06:17:03;;;;;;;6.37;5.17;;;;;;;;;;6255283;23;20431;-85
2021/06/14 06:19:29;;;;;;;7.33;5.33;;;;;;;;;;6255909;23;20368;-85
2021/06/14 06:21:55;;;;;;;6.10;5.60;;;;;;;;;;6230010;23;20412;-85
2021/06/14 06:24:21;;;;;;;12.87;6.50;;;;;;;;;;6229369;23;20396;-85
2021/06/14 06:26:50;;;;;;;5.20;4.40;;;;;;;;;;6255440;23;20364;-86
2021/06/14 06:29:19;;;;;;;6.40;4.60;;;;;;;;;;6227749;23;20361;-85
2021/06/14 06:31:48;;;;;;;5.50;4.83;;;;;;;;;;6202701;23;20480;-84
2021/06/14 06:34:17;;;;;;;6.37;5.13;;;;;;;;;;6229565;23;20407;-84
2021/06/14 06:36:43;;;;;;;5.10;4.43;;;;;;;;;;6204336;23;20389;-85
2021/06/14 06:39:09;;;;;;;5.27;4.70;;;;;;;;;;6229867;23;20472;-84
2021/06/14 06:41:35;;;;;;;7.27;5.63;;;;;;;;;;6199812;23;20425;-85
2021/06/14 06:44:01;;;;;;;7.40;5.67;;;;;;;;;;6232077;23;20373;-85
2021/06/14 06:46:28;;;;;;;11.50;8.10;;;;;;;;;;6229536;23;20882;-86
2021/06/14 06:49:12;;;;;;;9.73;8.70;;;;;;;;;;6225451;23;20373;-85
2021/06/14 06:51:40;;;;;;;7.77;6.70;;;;;;;;;;6232204;23;20487;-85
2021/06/14 06:54:12;;;;;;;8.03;4.53;;;;;;;;;;6205689;23;20392;-87
2021/06/14 06:56:39;;;;;;;8.17;5.87;;;;;;;;;;6228793;23;20354;-88
2021/06/14 06:59:09;;;;;;;8.63;7.67;;;;;;;;;;6201598;23;20389;-87
2021/06/14 07:01:39;;;;;;;6.43;5.30;;;;;;;;;;6229244;23;20420;-86
2021/06/14 07:04:05;;;;;;;7.77;5.10;;;;;;;;;;6206776;23;20424;-87
2021/06/14 07:06:32;;;;;;;8.67;5.07;;;;;;;;;;6232960;23;20369;-84
2021/06/14 07:08:59;;;;;;;10.50;8.93;;;;;;;;;;6199750;23;20381;-85
2021/06/14 07:11:25;;;;;;;6.40;4.87;;;;;;;;;;6225759;23;20396;-85
2021/06/14 07:13:51;;;;;;;5.23;4.73;;;;;;;;;;6225421;23;20374;-85
2021/06/14 07:16:18;;;;;;;8.17;4.10;;;;;;;;;;6226491;23;20370;-85
2021/06/14 07:18:45;;;;;;;7.70;6.07;;;;;;;;;;6226600;23;20369;-84
2021/06/14 07:21:11;;;;;;;6.57;5.70;;;;;;;;;;6227583;23;20424;-85
2021/06/14 07:23:37;;;;;;;7.43;5.13;;;;;;;;;;6226628;23;20488;-85
2021/06/14 07:26:07;;;;;;;6.10;3.87;;;;;;;;;;6228974;23;20385;-83
2021/06/14 07:28:33;;;;;;;8.43;7.63;;;;;;;;;;6228512;23;20374;-84
2021/06/14 07:31:00;;;;;;;9.33;8.47;;;;;;;;;;6227446;23;20378;-84
2021/06/14 07:33:27;;;;;;;11.27;7.57;;;;;;;;;;6226107;23;20389;-85
2021/06/14 07:35:56;;;;;;;7.50;6.63;;;;;;;;;;6227710;23;20439;-86
2021/06/14 07:38:23;;;;;;;9.60;5.83;;;;;;;;;;6201486;23;20439;-85
2021/06/14 07:40:50;;;;;;;7.50;5.00;;;;;;;;;;6226543;23;20417;-84
2021/06/14 07:43:19;;;;;;;7.20;5.70;;;;;;;;;;6201342;23;20445;-85
2021/06/14 07:45:46;;;;;;;6.33;4.10;;;;;;;;;;6229996;23;20372;-84
2021/06/14 07:48:13;;;;;;;5.60;4.50;;;;;;;;;;6240810;23;20413;-84
2021/06/14 07:50:40;;;;;;;5.17;4.67;;;;;;;;;;6242666;23;20389;-86
2021/06/14 07:53:07;;;;;;;7.60;5.83;;;;;;;;;;6243810;23;20374;-84
2021/06/14 07:55:35;;;;;;;4.77;4.37;;;;;;;;;;6243467;23;20378;-84
2021/06/14 07:58:01;;;;;;;11.37;5.50;;;;;;;;;;6205552;23;20388;-84
2021/06/14 08:00:28;;;;;;;8.23;6.03;;;;;;;;;;6203169;23;20421;-84
2021/06/14 08:02:57;;;;;;;7.40;4.87;;;;;;;;;;6232749;23;20388;-85
2021/06/14 08:05:27;;;;;;;5.77;5.27;;;;;;;;;;6230401;23;20382;-85
2021/06/14 08:07:57;;;;;;;6.83;5.30;;;;;;;;;;6230125;23;20387;-84
2021/06/14 08:10:23;;;;;;;6.13;4.00;;;;;;;;;;6226469;23;20401;-85
2021/06/14 08:12:51;;;;;;;4.87;4.40;;;;;;;;;;6228078;23;20393;-85
2021/06/14 08:15:20;;;;;;;8.33;5.30;;;;;;;;;;6225059;23;20786;-85
2021/06/14 08:17:51;;;;;;;6.77;6.07;;;;;;;;;;6199350;23;20377;-84
2021/06/14 08:26:05;;;;;;;6.67;4.27;;;;;;;;;;6224799;23;20461;-85
2021/06/14 08:28:31;;;;;;;4.37;3.97;;;;;;;;;;6230691;23;20380;-85
2021/06/14 08:30:57;;;;;;;7.10;4.80;;;;;;;;;;6231086;23;20394;-85
2021/06/14 08:33:24;;;;;;;4.70;3.93;;;;;;;;;;6232812;23;20366;-86
2021/06/14 08:35:50;;;;;;;5.77;4.80;;;;;;;;;;6205395;23;20410;-85
2021/06/14 08:38:17;;;;;;;4.53;4.00;;;;;;;;;;6206020;23;20382;-83
2021/06/14 08:40:43;;;;;;;6.13;4.23;;;;;;;;;;6245741;23;20452;-84
2021/06/14 08:43:10;;;;;;;3.70;3.40;;;;;;;;;;6262854;23;20399;-85
2021/06/14 08:45:40;;;;;;;5.37;4.87;;;;;;;;;;6209771;23;20380;-85
2021/06/14 08:48:11;;;;;;;15.03;5.80;;;;;;;;;;6233366;23;20391;-85
2021/06/14 08:50:38;;;;;;;9.03;5.20;;;;;;;;;;6232019;23;20388;-83
2021/06/14 08:53:05;;;;;;;10.20;9.20;;;;;;;;;;6232787;23;20390;-84
2021/06/14 08:55:35;;;;;;;8.17;7.37;;;;;;;;;;6183337;23;20412;-85
2021/06/14 08:58:02;;;;;;;9.73;8.10;;;;;;;;;;6210554;23;20487;-83
2021/06/14 09:00:30;;;;;;;5.57;5.07;;;;;;;;;;6230445;23;20400;-83
2021/06/14 09:02:57;;;;;;;7.20;4.83;;;;;;;;;;6207219;23;20385;-86
2021/06/14 09:05:24;;;;;;;4.80;3.40;;;;;;;;;;6233781;23;20392;-84
2021/06/14 09:07:51;;;;;;;6.80;4.47;;;;;;;;;;6259134;23;20392;-83
2021/06/14 09:10:28;;;;;;;12.60;5.17;;;;;;;;;;6207521;23;20421;-84
2021/06/14 09:12:56;;;;;;;19.93;5.57;;;;;;;;;;6207087;23;20376;-84
2021/06/14 09:15:27;;;;;;;7.73;5.73;;;;;;;;;;6206993;23;20381;-84
2021/06/14 09:17:57;;;;;;;6.73;4.00;;;;;;;;;;6207561;23;20380;-85
2021/06/14 09:20:25;;;;;;;6.83;4.23;;;;;;;;;;6207779;23;20454;-83
2021/06/14 09:22:53;;;;;;;4.93;3.57;;;;;;;;;;6233321;23;20369;-84
2021/06/14 09:25:22;;;;;;;5.37;4.10;;;;;;;;;;6207544;23;20481;-83
2021/06/14 09:27:58;;;;;;;5.23;3.97;;;;;;;;;;6207207;23;20377;-84
2021/06/14 09:30:33;;;;;;;14.73;10.87;;;;;;;;;;6257059;22;20389;-84
2021/06/14 09:33:00;;;;;;;4.73;3.40;;;;;;;;;;6231043;22;21402;-83
2021/06/14 09:35:31;;;;;;;5.10;4.20;;;;;;;;;;6247486;22;20409;-85
2021/06/14 09:37:59;;;;;;;4.80;3.47;;;;;;;;;;6246048;22;20346;-86
2021/06/14 09:40:29;;;;;;;3.30;2.87;;;;;;;;;;6246837;22;20464;-85
2021/06/14 09:42:56;;;;;;;4.60;3.80;;;;;;;;;;6217244;23;20392;-85
2021/06/14 09:45:23;;;;;;;4.93;3.73;;;;;;;;;;6234366;23;20379;-84
2021/06/14 09:47:52;;;;;;;5.60;3.70;;;;;;;;;;6232518;23;20391;-84
2021/06/14 09:50:32;;;;;;;4.23;3.00;;;;;;;;;;6205249;23;20403;-85
2021/06/14 09:53:15;;;;;;;4.83;3.60;;;;;;;;;;6207808;23;20353;-84
2021/06/14 09:55:43;;;;;;;6.47;5.77;;;;;;;;;;6229213;23;20388;-85
2021/06/14 09:58:10;;;;;;;5.00;3.40;;;;;;;;;;6256575;23;20365;-87
2021/06/14 10:00:36;;;;;;;4.93;3.03;;;;;;;;;;6255397;22;20419;-84
2021/06/14 10:03:03;;;;;;;4.50;3.40;;;;;;;;;;6229157;23;20373;-86
2021/06/14 10:05:29;;;;;;;8.97;5.67;;;;;;;;;;6231367;23;20844;-83
2021/06/14 10:07:56;;;;;;;4.37;2.83;;;;;;;;;;6235322;23;20383;-84
2021/06/14 10:10:25;;;;;;;5.67;4.70;;;;;;;;;;6209708;23;20440;-84
2021/06/14 10:12:55;;;;;;;6.97;6.27;;;;;;;;;;6231615;23;20460;-85
2021/06/14 10:15:29;;;;;;;4.20;3.90;;;;;;;;;;6206483;23;20391;-86
2021/06/14 10:17:56;;;;;;;4.10;3.20;;;;;;;;;;6255367;23;20391;-86
2021/06/14 10:20:27;;;;;;;4.90;3.90;;;;;;;;;;6229001;23;20412;-84
2021/06/14 10:22:56;;;;;;;6.83;4.90;;;;;;;;;;6229165;23;20368;-81
2021/06/14 10:25:23;;;;;;;3.53;3.23;;;;;;;;;;6203552;23;20452;-85
2021/06/14 10:27:52;;;;;;;3.83;3.00;;;;;;;;;;6227681;23;20365;-85
2021/06/14 10:30:19;;;;;;;10.80;7.87;;;;;;;;;;6227852;23;20397;-85
2021/06/14 10:32:50;;;;;;;6.67;4.13;;;;;;;;;;6202945;23;20487;-82
2021/06/14 10:35:17;;;;;;;8.30;3.53;;;;;;;;;;6228257;23;20369;-86
2021/06/14 10:37:45;;;;;;;5.57;3.17;;;;;;;;;;6254556;23;20357;-85
2021/06/14 10:40:13;;;;;;;7.10;5.70;;;;;;;;;;6202563;23;20392;-84
2021/06/14 10:42:41;;;;;;;6.13;5.53;;;;;;;;;;6228289;23;20492;-85
2021/06/14 10:45:10;;;;;;;6.50;4.00;;;;;;;;;;6227816;23;20387;-85
2021/06/14 10:47:42;;;;;;;7.20;4.10;;;;;;;;;;6230332;23;20369;-86
2021/06/14 10:50:12;;;;;;;5.93;3.50;;;;;;;;;;6229623;23;20431;-86
2021/06/14 10:52:42;;;;;;;8.73;3.67;;;;;;;;;;6204133;23;20377;-84
2021/06/14 10:55:10;;;;;;;3.67;3.37;;;;;;;;;;6231373;23;20384;-83
2021/06/14 10:57:37;;;;;;;9.43;2.20;;;;;;;;;;6230901;23;20381;-85
2021/06/14 11:00:05;;;;;;;3.70;2.60;;;;;;;;;;6206546;22;20407;-85
2021/06/14 11:02:33;;;;;;;4.50;3.30;;;;;;;;;;6261116;23;20404;-83
2021/06/14 11:05:05;;;;;;;4.50;2.80;;;;;;;;;;6265055;23;20684;-82
2021/06/14 11:07:32;;;;;;;4.50;3.07;;;;;;;;;;6238174;23;20497;-83
2021/06/14 11:09:59;;;;;;;10.30;3.93;;;;;;;;;;6237380;22;20381;-83
2021/06/14 11:12:28;;;;;;;8.70;3.40;;;;;;;;;;6229887;23;20426;-82
2021/06/14 11:14:55;;;;;;;5.03;3.27;;;;;;;;;;6257852;23;20387;-85
2021/06/14 11:17:25;;;;;;;5.93;3.67;;;;;;;;;;6202470;23;20376;-85
2021/06/14 11:20:01;;;;;;;4.50;3.43;;;;;;;;;;6212280;22;20371;-84
2021/06/14 11:22:39;;;;;;;4.80;3.83;;;;;;;;;;6273908;22;20420;-84
2021/06/14 11:25:27;;;;;;;6.00;2.83;;;;;;;;;;6248134;22;20372;-85
2021/06/14 11:27:54;;;;;;;3.90;3.33;;;;;;;;;;6247835;22;20381;-83
2021/06/14 11:30:27;;;;;;;6.40;4.30;;;;;;;;;;6239690;23;20397;-83
2021/06/14 11:32:53;;;;;;;6.77;3.40;;;;;;;;;;6256155;23;20372;-85
2021/06/14 11:35:25;;;;;;;5.20;3.10;;;;;;;;;;6230201;23;20385;-85
2021/06/14 11:37:53;;;;;;;4.57;3.00;;;;;;;;;;6255851;23;20361;-85
2021/06/14 11:43:13;;;;;;;3.50;2.37;;;;;;;;;;6231681;22;20417;-84
2021/06/14 11:45:42;;;;;;;4.20;3.30;;;;;;;;;;6201963;23;20419;-84
2021/06/14 11:48:21;;;;;;;9.70;6.73;;;;;;;;;;6205789;23;20401;-82
2021/06/14 11:51:02;;;;;;;7.53;3.73;;;;;;;;;;6218822;23;20397;-83
2021/06/14 11:53:28;;;;;;;4.03;3.23;;;;;;;;;;6194415;23;20429;-84
2021/06/14 11:56:01;;;;;;;7.20;5.77;;;;;;;;;;6195039;23;20741;-84
2021/06/14 11:58:33;;;;;;;4.83;4.03;;;;;;;;;;6170639;23;20771;-84
2021/06/14 12:01:07;;;;;;;5.70;3.50;;;;;;;;;;6194626;23;20429;-84
2021/06/14 12:03:39;;;;;;;3.17;2.87;;;;;;;;;;6196772;23;20405;-84
2021/06/14 12:06:06;;;;;;;5.93;3.03;;;;;;;;;;6194657;23;20375;-83
2021/06/14 12:08:32;;;;;;;6.07;2.70;;;;;;;;;;6195274;23;20405;-85
2021/06/14 12:11:08;;;;;;;3.27;2.20;;;;;;;;;;6196218;23;20401;-84
2021/06/14 12:13:38;;;;;;;3.27;2.97;;;;;;;;;;6195038;23;20389;-85
2021/06/14 12:16:04;;;;;;;3.67;2.77;;;;;;;;;;6198836;23;20366;-84
2021/06/14 12:18:34;;;;;;;4.80;3.87;;;;;;;;;;6196796;23;20393;-87
2021/06/14 12:21:02;;;;;;;7.07;3.50;;;;;;;;;;6170447;23;20426;-83
2021/06/14 12:26:42;;;;;;;3.30;2.87;;;;;;;;;;6180305;23;20864;-84
2021/06/14 12:29:43;;;;;;;3.73;2.70;;;;;;;;;;6196180;23;20370;-82
2021/06/14 12:32:11;;;;;;;6.80;4.30;;;;;;;;;;6116333;23;20423;-83
2021/06/14 12:34:39;;;;;;;4.40;3.77;;;;;;;;;;6193690;23;20493;-84
2021/06/14 12:37:13;;;;;;;8.63;4.50;;;;;;;;;;6193328;23;20403;-82
2021/06/14 12:39:40;;;;;;;10.27;4.73;;;;;;;;;;6196138;23;20355;-84
2021/06/14 12:42:19;;;;;;;29.97;4.77;;;;;;;;;;6196269;23;20423;-83
2021/06/14 12:45:02;;;;;;;3.60;3.00;;;;;;;;;;6193931;23;20371;-83
2021/06/14 12:47:31;;;;;;;4.50;2.87;;;;;;;;;;6196026;23;20398;-84
2021/06/14 12:50:23;;;;;;;6.20;4.07;;;;;;;;;;6197841;23;20498;-84
2021/06/14 12:52:50;;;;;;;4.07;2.50;;;;;;;;;;6169565;23;20378;-84
2021/06/14 12:55:23;;;;;;;5.70;2.90;;;;;;;;;;6199097;23;20367;-83
2021/06/14 12:57:53;;;;;;;3.90;3.33;;;;;;;;;;6193958;23;20413;-83
2021/06/14 13:00:22;;;;;;;3.90;2.40;;;;;;;;;;6191289;23;20442;-83
2021/06/14 13:03:18;;;;;;;3.90;3.53;;;;;;;;;;6191221;23;20444;-83
2021/06/14 13:05:49;;;;;;;4.30;3.07;;;;;;;;;;6138500;23;20447;-82
2021/06/14 13:08:16;;;;;;;6.33;3.60;;;;;;;;;;6192757;23;20351;-83
2021/06/14 13:10:44;;;;;;;3.70;3.40;;;;;;;;;;6192491;23;20379;-83
2021/06/14 13:13:13;;;;;;;5.60;2.83;;;;;;;;;;6192193;23;20678;-84
2021/06/14 13:15:41;;;;;;;5.87;2.83;;;;;;;;;;6191641;23;20374;-83
2021/06/14 13:18:15;;;;;;;4.50;2.90;;;;;;;;;;6191098;23;20393;-81
2021/06/14 13:20:46;;;;;;;3.70;2.20;;;;;;;;;;6194162;23;20406;-83
2021/06/14 13:26:42;;;;;;;2.93;2.63;;;;;;;;;;6064393;23;20525;-86
2021/06/14 13:29:17;;;;;;;3.70;2.80;;;;;;;;;;6073367;23;20688;-85
2021/06/14 13:32:09;;;;;;;5.37;3.03;;;;;;;;;;6074248;23;20390;-87
2021/06/14 13:34:40;;;;;;;3.13;2.83;;;;;;;;;;6073910;23;20413;-88
2021/06/14 13:37:10;;;;;;;2.33;2.13;;;;;;;;;;6028071;23;20550;-89
2021/06/14 13:40:00;;;;;;;3.93;2.80;;;;;;;;;;6051070;23;20884;-86
2021/06/14 13:42:44;;;;;;;2.50;2.20;;;;;;;;;;6048495;23;20425;-89
2021/06/14 13:56:37;;;;;;;3.73;3.43;;;;;;;;;;6195158;23;20564;-87
2021/06/14 14:02:32;;;;;;;4.20;3.00;;;;;;;;;;6130280;23;20441;-88
2021/06/14 14:05:02;;;;;;;5.00;4.50;;;;;;;;;;6169865;23;20382;-88
2021/06/14 14:07:41;;;;;;;3.73;2.10;;;;;;;;;;6195640;23;20540;-88
2021/06/14 14:26:14;;;;;;;2.40;2.20;;;;;;;;;;6227977;22;20433;-87
2021/06/14 14:28:52;;;;;;;2.80;2.30;;;;;;;;;;6228751;23;20377;-87
2021/06/14 14:31:27;;;;;;;2.87;2.20;;;;;;;;;;6185537;23;20450;-88
2021/06/14 14:34:01;;;;;;;2.33;2.13;;;;;;;;;;6199172;23;20374;-85
2021/06/14 14:36:30;;;;;;;2.63;2.43;;;;;;;;;;6203374;23;20354;-85
2021/06/14 14:39:14;;;;;;;4.63;2.57;;;;;;;;;;6179511;23;20413;-83
2021/06/14 14:41:43;;;;;;;3.73;2.50;;;;;;;;;;6195572;23;20426;-85
2021/06/14 14:44:16;;;;;;;3.27;3.07;;;;;;;;;;6142251;23;20379;-84
2021/06/14 14:46:45;;;;;;;2.80;2.40;;;;;;;;;;6142054;23;20454;-85
2021/06/14 14:49:24;;;;;;;3.87;3.53;;;;;;;;;;6166511;23;20490;-85
2021/06/14 14:52:00;;;;;;;2.33;2.13;;;;;;;;;;6141515;23;20733;-85
2021/06/14 14:54:33;;;;;;;2.80;2.33;;;;;;;;;;6165469;23;20475;-84
2021/06/14 14:57:29;;;;;;;2.13;1.93;;;;;;;;;;6166295;23;20430;-85
2021/06/14 15:00:01;;;;;;;5.00;2.80;;;;;;;;;;6139913;23;20379;-85
2021/06/14 15:02:28;;;;;;;5.83;2.90;;;;;;;;;;6141676;23;20419;-84
2021/06/14 15:04:59;;;;;;;4.90;1.90;;;;;;;;;;6142669;23;20800;-84
2021/06/14 15:07:26;;;;;;;5.90;2.77;;;;;;;;;;6167750;23;20371;-85
2021/06/14 15:09:57;;;;;;;2.40;1.80;;;;;;;;;;6166441;23;20364;-84
2021/06/14 15:12:27;;;;;;;4.77;2.47;;;;;;;;;;6141134;23;20517;-85
2021/06/14 15:15:02;;;;;;;2.50;2.30;;;;;;;;;;6165702;23;20371;-85
2021/06/14 15:17:28;;;;;;;4.37;3.37;;;;;;;;;;6167784;23;20367;-83
2021/06/14 15:19:56;;;;;;;2.37;1.93;;;;;;;;;;6166382;23;20382;-84
2021/06/14 15:22:23;;;;;;;2.57;2.00;;;;;;;;;;6167389;23;20901;-85
2021/06/14 15:24:57;;;;;;;3.80;2.90;;;;;;;;;;6163855;23;20395;-85
2021/06/14 15:27:26;;;;;;;9.13;2.63;;;;;;;;;;6165086;23;20355;-85
2021/06/14 15:30:03;;;;;;;3.50;2.20;;;;;;;;;;6166384;23;20407;-85
2021/06/14 15:32:33;;;;;;;2.77;2.53;;;;;;;;;;6137989;23;20406;-85
2021/06/14 15:35:04;;;;;;;3.20;2.90;;;;;;;;;;6165034;23;20380;-85
2021/06/14 15:37:39;;;;;;;8.00;4.90;;;;;;;;;;6139186;23;20383;-84
2021/06/14 15:40:12;;;;;;;7.53;2.73;;;;;;;;;;6139482;23;20409;-85
2021/06/14 15:42:41;;;;;;;3.70;3.40;;;;;;;;;;6139910;23;20419;-84
2021/06/14 15:45:44;;;;;;;4.30;2.20;;;;;;;;;;6138798;23;20459;-84
2021/06/14 15:48:11;;;;;;;3.53;3.23;;;;;;;;;;6139165;23;20458;-84
2021/06/14 15:50:39;;;;;;;3.83;2.77;;;;;;;;;;6163942;23;20391;-84
2021/06/14 15:53:09;;;;;;;4.57;4.10;;;;;;;;;;6140273;23;20387;-85
2021/06/14 15:55:36;;;;;;;2.97;2.77;;;;;;;;;;6167169;23;20454;-85
2021/06/14 15:58:02;;;;;;;2.47;2.27;;;;;;;;;;6139813;23;20371;-84
2021/06/14 16:00:29;;;;;;;3.67;2.07;;;;;;;;;;6138456;23;20407;-84
2021/06/14 16:02:59;;;;;;;3.83;2.10;;;;;;;;;;6138445;23;20391;-84
2021/06/14 16:05:28;;;;;;;4.33;2.60;;;;;;;;;;6138671;23;20554;-84
2021/06/14 16:07:54;;;;;;;3.83;3.03;;;;;;;;;;6165417;23;20364;-83
2021/06/14 16:10:23;;;;;;;4.93;3.63;;;;;;;;;;6163829;23;20399;-84
2021/06/14 16:12:50;;;;;;;2.30;2.10;;;;;;;;;;6139124;23;20379;-83
2021/06/14 16:15:20;;;;;;;5.20;2.83;;;;;;;;;;6161864;23;20387;-84
2021/06/14 16:17:49;;;;;;;14.23;4.03;;;;;;;;;;6162646;23;20384;-85
2021/06/14 16:20:19;;;;;;;8.00;3.47;;;;;;;;;;6137289;23;20395;-84
2021/06/14 16:22:49;;;;;;;2.90;2.60;;;;;;;;;;6137474;23;20415;-83
2021/06/14 16:25:18;;;;;;;4.30;3.50;;;;;;;;;;6160849;23;20364;-84
2021/06/14 16:27:45;;;;;;;7.07;6.40;;;;;;;;;;6136922;23;20383;-84
2021/06/14 16:30:17;;;;;;;3.03;2.63;;;;;;;;;;6161524;23;20803;-83
2021/06/14 16:32:47;;;;;;;4.40;3.80;;;;;;;;;;6178275;23;20387;-84
2021/06/14 16:35:40;;;;;;;3.50;2.93;;;;;;;;;;6164451;23;20471;-86
2021/06/14 16:38:11;;;;;;;2.80;2.60;;;;;;;;;;6165714;23;20773;-85
2021/06/14 16:43:31;;;;;;;4.20;3.00;;;;;;;;;;6138908;23;20384;-86
2021/06/14 16:46:00;;;;;;;3.60;2.53;;;;;;;;;;6142042;23;20395;-84
2021/06/14 16:48:44;;;;;;;2.73;2.40;;;;;;;;;;6165261;23;20435;-85
2021/06/14 16:51:35;;;;;;;3.60;2.83;;;;;;;;;;6165976;23;20395;-85
2021/06/14 16:54:02;;;;;;;4.80;2.40;;;;;;;;;;6165388;23;20395;-85
2021/06/14 16:56:40;;;;;;;3.33;2.97;;;;;;;;;;6142391;23;20387;-84
2021/06/14 16:59:07;;;;;;;5.17;3.03;;;;;;;;;;6140822;23;20385;-84
2021/06/14 17:01:39;;;;;;;3.70;3.27;;;;;;;;;;6168725;23;20419;-86
2021/06/14 17:04:05;;;;;;;4.97;2.50;;;;;;;;;;6167778;23;20666;-85
2021/06/14 17:06:47;;;;;;;3.57;2.80;;;;;;;;;;6140163;23;20399;-85
2021/06/14 17:09:17;;;;;;;6.10;2.80;;;;;;;;;;6140782;23;20395;-85
2021/06/14 17:12:04;;;;;;;11.73;5.23;;;;;;;;;;6164063;23;20868;-84
2021/06/14 17:14:31;;;;;;;5.50;4.50;;;;;;;;;;6166064;23;20398;-85
2021/06/14 17:17:07;;;;;;;4.73;4.33;;;;;;;;;;6140043;23;20356;-86
2021/06/14 17:19:41;;;;;;;5.43;3.30;;;;;;;;;;6140652;23;20382;-85
2021/06/14 17:22:28;;;;;;;5.07;4.43;;;;;;;;;;6164602;23;20963;-86
2021/06/14 17:25:07;;;;;;;4.00;3.13;;;;;;;;;;6139520;23;20382;-85
2021/06/14 17:27:44;;;;;;;5.80;3.50;;;;;;;;;;6165644;23;20364;-85
2021/06/14 17:36:26;;;;;;;13.07;11.73;;;;;;;;;;6075899;23;20380;-85
2021/06/14 17:39:04;;;;;;;13.13;11.83;;;;;;;;;;6075457;23;20452;-85
2021/06/14 17:41:32;;;;;;;5.90;3.67;;;;;;;;;;6100965;23;20446;-89
2021/06/14 17:43:59;;;;;;;6.33;5.40;;;;;;;;;;6201375;23;20372;-88
2021/06/14 17:46:26;;;;;;;7.50;5.57;;;;;;;;;;6201153;23;20375;-87
2021/06/14 17:48:52;;;;;;;6.80;6.10;;;;;;;;;;6206380;23;20378;-87
2021/06/14 17:51:19;;;;;;;6.10;4.07;;;;;;;;;;6210372;23;20391;-88
2021/06/14 17:53:45;;;;;;;5.67;3.97;;;;;;;;;;6209113;23;20366;-88
2021/06/14 17:56:12;;;;;;;5.43;3.60;;;;;;;;;;6210343;23;20378;-88
2021/06/14 17:58:38;;;;;;;6.83;3.43;;;;;;;;;;6209652;23;20391;-87
2021/06/14 18:01:05;;;;;;;5.80;4.50;;;;;;;;;;6209686;23;20418;-88
2021/06/14 18:03:32;;;;;;;6.13;3.90;;;;;;;;;;6204157;23;20382;-87
2021/06/14 18:05:58;;;;;;;6.40;5.57;;;;;;;;;;6201928;23;20393;-89
2021/06/14 18:08:24;;;;;;;17.03;15.27;;;;;;;;;;6202991;23;20410;-89
2021/06/14 18:10:54;;;;;;;4.90;4.17;;;;;;;;;;6205467;23;20414;-88
2021/06/14 18:13:20;;;;;;;5.47;2.90;;;;;;;;;;6205664;23;20371;-87
2021/06/14 18:15:47;;;;;;;6.10;3.70;;;;;;;;;;6182677;23;20450;-88
2021/06/14 18:18:13;;;;;;;6.73;6.13;;;;;;;;;;6206902;23;20402;-88
2021/06/14 18:20:40;;;;;;;7.10;4.63;;;;;;;;;;6206607;23;20531;-87
2021/06/14 18:23:07;;;;;;;5.13;4.60;;;;;;;;;;6203569;23;20413;-88
2021/06/14 18:25:34;;;;;;;4.83;4.30;;;;;;;;;;6206073;23;20450;-88
2021/06/14 18:28:01;;;;;;;5.57;4.20;;;;;;;;;;6208153;23;20353;-88
2021/06/14 18:30:31;;;;;;;4.00;3.70;;;;;;;;;;6180499;23;20421;-87
2021/06/14 18:33:23;;;;;;;6.67;4.10;;;;;;;;;;6205124;23;20386;-87
2021/06/14 18:35:57;;;;;;;5.00;3.80;;;;;;;;;;6208333;23;20332;-89
2021/06/14 18:38:30;;;;;;;6.80;5.63;;;;;;;;;;6206259;23;20370;-88
2021/06/14 18:40:58;;;;;;;6.70;5.50;;;;;;;;;;6203623;23;20728;-88